Time;durP1;ratioP1;P1;durP2;ratioP2;P2;SDS_P1;SDS_P2;PMS_P1;PMS_P2;Temp;Humidity;BMP_temperature;BMP_pressure;BME280_temperature;BME280_humidity;BME280_pressure;Samples;Min_cycle;Max_cycle;Signal;HPM_P1;HPM_P2
2023/08/30 00:00:22;;;;;;;0.50;0.40;;;14.50;99.90;;;;;;5054424;28;20443;-79
2023/08/30 00:02:48;;;;;;;0.50;0.40;;;14.40;99.90;;;;;;5054768;28;20448;-80
2023/08/30 00:05:15;;;;;;;0.50;0.40;;;14.40;99.90;;;;;;5054009;28;20440;-80
2023/08/30 00:07:42;;;;;;;0.50;0.40;;;14.30;99.90;;;;;;5054103;28;20477;-79
2023/08/30 00:10:10;;;;;;;0.50;0.40;;;14.30;99.90;;;;;;5054325;28;20443;-79
2023/08/30 00:12:37;;;;;;;0.50;0.40;;;14.30;99.90;;;;;;5054817;28;20507;-79
2023/08/30 00:15:06;;;;;;;0.50;0.40;;;14.30;99.90;;;;;;5054461;28;20443;-79
2023/08/30 00:17:33;;;;;;;0.50;0.40;;;14.30;99.90;;;;;;5054742;28;20438;-80
2023/08/30 00:20:00;;;;;;;0.50;0.40;;;14.30;99.90;;;;;;5053407;28;20888;-79
2023/08/30 00:22:28;;;;;;;0.50;0.40;;;14.30;99.90;;;;;;5054484;28;20437;-80
2023/08/30 00:24:55;;;;;;;0.50;0.40;;;14.30;99.90;;;;;;5056416;28;20493;-79
2023/08/30 00:27:22;;;;;;;0.50;0.40;;;14.20;99.90;;;;;;5058349;28;20484;-80
2023/08/30 00:29:48;;;;;;;0.50;0.40;;;14.30;99.90;;;;;;5058122;28;20930;-80
2023/08/30 00:32:17;;;;;;;0.50;0.40;;;14.30;99.90;;;;;;5058235;28;20442;-80
2023/08/30 00:34:43;;;;;;;0.50;0.40;;;14.30;99.90;;;;;;5058073;28;20468;-81
2023/08/30 00:37:10;;;;;;;0.50;0.40;;;14.30;99.90;;;;;;5058139;28;20506;-80
2023/08/30 00:39:38;;;;;;;0.50;0.40;;;14.30;99.90;;;;;;5057742;28;20834;-80
2023/08/30 00:42:07;;;;;;;0.50;0.40;;;14.20;99.90;;;;;;5058343;28;20438;-80
2023/08/30 00:44:34;;;;;;;0.50;0.40;;;14.20;99.90;;;;;;5057756;28;20459;-80
2023/08/30 00:47:01;;;;;;;0.50;0.40;;;14.20;99.90;;;;;;5057447;28;20488;-80
2023/08/30 00:49:30;;;;;;;0.50;0.40;;;14.20;99.90;;;;;;5057470;28;20462;-80
2023/08/30 00:51:58;;;;;;;0.50;0.40;;;14.10;99.90;;;;;;5057895;28;20436;-79
2023/08/30 00:54:25;;;;;;;1.13;1.13;;;14.00;99.90;;;;;;5057760;28;20527;-80
2023/08/30 00:56:52;;;;;;;0.50;0.40;;;14.00;99.90;;;;;;5057657;28;20541;-80
2023/08/30 00:59:19;;;;;;;0.50;0.40;;;14.00;99.90;;;;;;5057293;28;20438;-80
2023/08/30 01:01:47;;;;;;;0.50;0.40;;;14.00;99.90;;;;;;5057239;28;20550;-79
2023/08/30 01:04:14;;;;;;;0.50;0.50;;;14.00;99.90;;;;;;5058093;28;20546;-79
2023/08/30 01:06:43;;;;;;;0.50;0.40;;;14.10;99.90;;;;;;5057911;28;20482;-80
2023/08/30 01:09:10;;;;;;;0.60;0.50;;;14.10;99.90;;;;;;5057411;28;20840;-80
2023/08/30 01:11:44;;;;;;;0.50;0.50;;;14.10;99.90;;;;;;5057521;28;20955;-79
2023/08/30 01:14:16;;;;;;;0.50;0.40;;;14.10;99.90;;;;;;5057029;28;20985;-79
2023/08/30 01:16:44;;;;;;;0.50;0.40;;;14.10;99.90;;;;;;5057510;28;20866;-76
2023/08/30 01:19:30;;;;;;;0.50;0.40;;;14.10;99.90;;;;;;5057282;28;20888;-80
2023/08/30 01:22:06;;;;;;;0.50;0.40;;;14.10;99.90;;;;;;5057028;28;20455;-79
2023/08/30 01:24:42;;;;;;;0.73;0.73;;;14.10;99.90;;;;;;5043640;28;20882;-80
2023/08/30 01:27:12;;;;;;;0.50;0.40;;;14.10;99.90;;;;;;5056913;28;20559;-80
2023/08/30 01:29:43;;;;;;;0.50;0.40;;;14.10;99.90;;;;;;5056683;28;20488;-80
2023/08/30 01:32:10;;;;;;;0.50;0.40;;;14.10;99.90;;;;;;5056784;28;20434;-79
2023/08/30 01:34:39;;;;;;;0.50;0.40;;;14.10;99.90;;;;;;5056476;28;20491;-81
2023/08/30 01:37:07;;;;;;;0.50;0.40;;;14.10;99.90;;;;;;5056954;28;20473;-80
2023/08/30 01:39:35;;;;;;;0.50;0.50;;;14.10;99.90;;;;;;5057094;28;20441;-80
2023/08/30 01:42:04;;;;;;;0.50;0.40;;;14.10;99.90;;;;;;5056289;28;20438;-79
2023/08/30 01:44:33;;;;;;;0.50;0.40;;;14.10;99.90;;;;;;5055711;28;20450;-79
2023/08/30 01:47:01;;;;;;;0.50;0.40;;;14.10;99.90;;;;;;5056954;28;20492;-80
2023/08/30 01:49:31;;;;;;;0.50;0.40;;;14.00;99.90;;;;;;5040889;28;20503;-82
2023/08/30 01:51:59;;;;;;;0.50;0.40;;;14.00;99.90;;;;;;5056666;28;20456;-80
2023/08/30 01:54:27;;;;;;;2.17;2.10;;;14.00;99.90;;;;;;5056190;28;20540;-81
2023/08/30 01:56:54;;;;;;;0.50;0.40;;;14.00;99.90;;;;;;5056708;28;20890;-80
2023/08/30 01:59:21;;;;;;;0.73;0.73;;;14.00;99.90;;;;;;5055752;28;20556;-79
2023/08/30 02:01:49;;;;;;;0.53;0.50;;;14.00;99.90;;;;;;5056385;28;20436;-80
2023/08/30 02:04:16;;;;;;;0.50;0.40;;;14.00;99.90;;;;;;5056592;28;20456;-80
2023/08/30 02:06:50;;;;;;;3.90;1.17;;;14.00;99.90;;;;;;5056609;28;20437;-77
2023/08/30 02:09:22;;;;;;;0.50;0.50;;;14.00;99.90;;;;;;5056590;28;20819;-79
2023/08/30 02:11:53;;;;;;;0.60;0.60;;;14.00;99.90;;;;;;5056783;28;20515;-80
2023/08/30 02:14:22;;;;;;;9.33;8.57;;;14.00;99.90;;;;;;5055953;28;20459;-80
2023/08/30 02:16:50;;;;;;;0.50;0.40;;;14.00;99.90;;;;;;5056292;28;20443;-82
2023/08/30 02:19:20;;;;;;;0.50;0.40;;;14.00;99.90;;;;;;5056579;28;20525;-81
2023/08/30 02:21:48;;;;;;;0.50;0.40;;;14.00;99.90;;;;;;5056639;28;20513;-79
2023/08/30 02:24:15;;;;;;;0.60;0.60;;;14.00;99.90;;;;;;5055774;28;20470;-81
2023/08/30 02:26:41;;;;;;;0.50;0.40;;;13.90;99.90;;;;;;5056086;28;20528;-81
2023/08/30 02:29:09;;;;;;;0.50;0.40;;;13.90;99.90;;;;;;5055576;28;20448;-80
2023/08/30 02:31:36;;;;;;;0.50;0.40;;;13.80;99.90;;;;;;5056725;28;20503;-78
2023/08/30 02:34:04;;;;;;;0.50;0.40;;;13.80;99.90;;;;;;5056109;28;20613;-80
2023/08/30 02:36:31;;;;;;;0.50;0.40;;;13.80;99.90;;;;;;5038164;28;20531;-78
2023/08/30 02:38:58;;;;;;;0.50;0.40;;;13.70;99.90;;;;;;5090404;22;20496;-80
2023/08/30 02:41:25;;;;;;;0.50;0.50;;;13.70;99.90;;;;;;5012074;28;20448;-80
2023/08/30 02:43:51;;;;;;;0.50;0.40;;;13.70;99.90;;;;;;5030709;28;21004;-79
2023/08/30 02:46:18;;;;;;;0.50;0.40;;;13.60;99.90;;;;;;5032746;28;20448;-79
2023/08/30 02:48:45;;;;;;;1.00;1.00;;;13.70;99.90;;;;;;5031862;28;20980;-80
2023/08/30 02:51:13;;;;;;;0.50;0.40;;;13.60;99.90;;;;;;5033699;28;20454;-79
2023/08/30 02:53:40;;;;;;;0.50;0.40;;;13.60;99.90;;;;;;5033191;28;20521;-79
2023/08/30 02:56:07;;;;;;;0.50;0.40;;;13.50;99.90;;;;;;5033641;28;20441;-79
2023/08/30 02:58:34;;;;;;;0.50;0.40;;;13.50;99.90;;;;;;5033114;28;20466;-79
2023/08/30 03:01:02;;;;;;;0.50;0.40;;;13.40;99.90;;;;;;5033859;28;20445;-80
2023/08/30 03:03:29;;;;;;;0.50;0.40;;;13.40;99.90;;;;;;5033814;28;20448;-80
2023/08/30 03:05:56;;;;;;;0.50;0.40;;;13.40;99.90;;;;;;5033849;28;20448;-79
2023/08/30 03:08:24;;;;;;;0.50;0.40;;;13.30;99.90;;;;;;5032604;28;20492;-77
2023/08/30 03:10:51;;;;;;;0.50;0.40;;;13.30;99.90;;;;;;5034387;28;20534;-80
2023/08/30 03:13:18;;;;;;;0.50;0.40;;;13.30;99.90;;;;;;5035009;28;20542;-80
2023/08/30 03:15:44;;;;;;;0.50;0.40;;;13.30;99.90;;;;;;5034700;28;20440;-81
2023/08/30 03:18:11;;;;;;;0.50;0.40;;;13.30;99.90;;;;;;5034362;28;20442;-80
2023/08/30 03:20:38;;;;;;;0.50;0.40;;;13.30;99.90;;;;;;5034060;28;20473;-80
2023/08/30 03:23:05;;;;;;;0.50;0.40;;;13.30;99.90;;;;;;5035096;28;20887;-80
2023/08/30 03:25:33;;;;;;;0.60;0.40;;;13.30;99.90;;;;;;5033800;28;20447;-81
2023/08/30 03:28:00;;;;;;;0.50;0.40;;;13.30;99.90;;;;;;5034473;28;21049;-80
2023/08/30 03:30:26;;;;;;;0.50;0.40;;;13.30;99.90;;;;;;5033327;28;20463;-80
2023/08/30 03:32:53;;;;;;;0.50;0.40;;;13.30;99.90;;;;;;5034461;28;20443;-80
2023/08/30 03:35:21;;;;;;;0.50;0.40;;;13.30;99.90;;;;;;5034055;28;20536;-80
2023/08/30 03:37:48;;;;;;;0.50;0.40;;;13.30;99.90;;;;;;5033966;28;20435;-80
2023/08/30 03:40:15;;;;;;;0.50;0.40;;;13.30;99.90;;;;;;5033399;28;20909;-79
2023/08/30 03:42:43;;;;;;;0.50;0.40;;;13.30;99.90;;;;;;5034082;28;20455;-81
2023/08/30 03:45:10;;;;;;;0.50;0.40;;;13.20;99.90;;;;;;5033867;28;20480;-80
2023/08/30 03:47:38;;;;;;;0.50;0.30;;;13.10;99.90;;;;;;5017974;28;20499;-80
2023/08/30 03:50:05;;;;;;;0.50;0.40;;;13.10;99.90;;;;;;5034033;28;20554;-81
2023/08/30 03:52:32;;;;;;;0.50;0.40;;;13.10;99.90;;;;;;5032941;28;20441;-80
2023/08/30 03:54:59;;;;;;;0.50;0.40;;;13.10;99.90;;;;;;5033412;28;20537;-80
2023/08/30 03:57:26;;;;;;;0.50;0.40;;;13.10;99.90;;;;;;5033593;28;20447;-79
2023/08/30 03:59:54;;;;;;;0.50;0.40;;;13.10;99.90;;;;;;5032239;28;20466;-79
2023/08/30 04:02:20;;;;;;;0.50;0.40;;;13.10;99.90;;;;;;5032437;28;20445;-80
2023/08/30 04:04:48;;;;;;;0.50;0.40;;;13.00;99.90;;;;;;5032587;28;20638;-80
2023/08/30 04:07:15;;;;;;;0.50;0.40;;;13.00;99.90;;;;;;5032331;28;20579;-79
2023/08/30 04:09:42;;;;;;;0.50;0.40;;;13.00;99.90;;;;;;5013107;28;20489;-79
2023/08/30 04:12:08;;;;;;;0.50;0.40;;;13.00;99.90;;;;;;5021911;28;20445;-81
2023/08/30 04:14:35;;;;;;;0.50;0.40;;;13.00;99.90;;;;;;5026287;28;20442;-79
2023/08/30 04:17:04;;;;;;;0.50;0.40;;;13.00;99.90;;;;;;5027293;28;20441;-81
2023/08/30 04:19:30;;;;;;;0.50;0.40;;;13.00;99.90;;;;;;5031644;28;20915;-80
2023/08/30 04:21:57;;;;;;;0.67;0.67;;;13.00;99.90;;;;;;5025118;28;21010;-80
2023/08/30 04:24:24;;;;;;;1.13;1.13;;;13.00;99.90;;;;;;5027160;28;20446;-82
2023/08/30 04:26:53;;;;;;;1.47;1.37;;;13.00;99.90;;;;;;5031029;28;20447;-82
2023/08/30 04:29:20;;;;;;;0.53;0.53;;;12.90;99.90;;;;;;5033984;28;20491;-81
2023/08/30 04:31:46;;;;;;;0.50;0.40;;;12.90;99.90;;;;;;5028404;28;20480;-80
2023/08/30 04:34:16;;;;;;;0.50;0.40;;;12.90;99.90;;;;;;5024519;28;20446;-78
2023/08/30 04:36:42;;;;;;;0.50;0.40;;;12.90;99.90;;;;;;5018960;28;20444;-80
2023/08/30 04:39:10;;;;;;;0.50;0.40;;;12.90;99.90;;;;;;5030693;28;20465;-80
2023/08/30 04:41:37;;;;;;;0.50;0.40;;;12.90;99.90;;;;;;5032053;28;21068;-80
2023/08/30 04:44:04;;;;;;;0.50;0.40;;;12.90;99.90;;;;;;5027065;28;20439;-81
2023/08/30 04:46:31;;;;;;;0.50;0.40;;;12.90;99.90;;;;;;5011243;28;20439;-80
2023/08/30 04:48:58;;;;;;;0.50;0.40;;;12.80;99.90;;;;;;5025528;28;20491;-80
2023/08/30 04:51:26;;;;;;;0.50;0.40;;;12.80;99.90;;;;;;5031456;28;20466;-81
2023/08/30 04:53:53;;;;;;;0.50;0.40;;;12.80;99.90;;;;;;5032448;28;20824;-81
2023/08/30 04:56:19;;;;;;;0.50;0.40;;;12.70;99.90;;;;;;5032501;28;20445;-80
2023/08/30 04:58:46;;;;;;;0.50;0.40;;;12.70;99.90;;;;;;5032396;28;20580;-80
2023/08/30 05:01:14;;;;;;;0.50;0.40;;;12.80;99.90;;;;;;5032507;28;20442;-81
2023/08/30 05:03:41;;;;;;;1.00;1.00;;;12.70;99.90;;;;;;5031542;28;20455;-80
2023/08/30 05:06:08;;;;;;;0.50;0.40;;;12.70;99.90;;;;;;5031684;28;20445;-80
2023/08/30 05:08:36;;;;;;;0.50;0.40;;;12.70;99.90;;;;;;5032097;28;20506;-80
2023/08/30 05:11:03;;;;;;;0.60;0.40;;;12.70;99.90;;;;;;5035304;28;20442;-81
2023/08/30 05:13:30;;;;;;;0.50;0.40;;;12.70;99.90;;;;;;5036851;28;20441;-81
2023/08/30 05:15:57;;;;;;;0.50;0.40;;;12.70;99.90;;;;;;5036001;28;20530;-80
2023/08/30 05:18:24;;;;;;;0.50;0.40;;;12.70;99.90;;;;;;5035645;28;20520;-78
2023/08/30 05:20:51;;;;;;;0.50;0.40;;;12.80;99.90;;;;;;5035861;28;20540;-80
2023/08/30 05:23:17;;;;;;;0.50;0.40;;;12.80;99.90;;;;;;5035933;28;20826;-80
2023/08/30 05:25:46;;;;;;;0.50;0.40;;;12.80;99.90;;;;;;5035189;28;20480;-80
2023/08/30 05:28:13;;;;;;;0.50;0.40;;;12.90;99.90;;;;;;5036468;28;20538;-80
2023/08/30 05:30:43;;;;;;;0.50;0.40;;;12.90;99.90;;;;;;5036461;28;20534;-81
2023/08/30 05:33:10;;;;;;;0.50;0.40;;;12.90;99.90;;;;;;5037136;28;20532;-81
2023/08/30 05:35:36;;;;;;;0.50;0.40;;;13.00;99.90;;;;;;5038384;28;20459;-81
2023/08/30 05:38:04;;;;;;;0.50;0.40;;;13.00;99.90;;;;;;5038016;28;20520;-81
2023/08/30 05:40:31;;;;;;;0.50;0.40;;;13.10;99.90;;;;;;5037525;28;20499;-81
2023/08/30 05:42:59;;;;;;;0.50;0.40;;;13.10;99.90;;;;;;5037251;28;21013;-81
2023/08/30 05:45:25;;;;;;;0.50;0.40;;;13.10;99.90;;;;;;5037408;28;20447;-79
2023/08/30 05:47:52;;;;;;;0.50;0.40;;;13.10;99.90;;;;;;5037953;28;20870;-81
2023/08/30 05:50:19;;;;;;;0.50;0.40;;;13.20;99.90;;;;;;5037335;28;20562;-81
2023/08/30 05:52:46;;;;;;;3.23;1.33;;;13.20;99.90;;;;;;5037284;28;20452;-81
2023/08/30 05:55:13;;;;;;;0.50;0.40;;;13.30;99.90;;;;;;5037868;28;20462;-81
2023/08/30 05:57:39;;;;;;;0.50;0.40;;;13.30;99.90;;;;;;5037891;28;20530;-81
2023/08/30 06:00:09;;;;;;;0.50;0.40;;;13.40;99.90;;;;;;5037649;28;20570;-81
2023/08/30 06:02:36;;;;;;;0.73;0.73;;;13.50;99.90;;;;;;5037426;28;20440;-81
2023/08/30 06:05:03;;;;;;;0.50;0.37;;;13.60;99.90;;;;;;5037209;28;20448;-81
2023/08/30 06:07:30;;;;;;;0.50;0.40;;;13.70;99.90;;;;;;5037227;28;20449;-81
2023/08/30 06:09:57;;;;;;;0.50;0.40;;;13.80;99.90;;;;;;5038031;28;20575;-81
2023/08/30 06:12:25;;;;;;;0.50;0.40;;;13.90;99.90;;;;;;5037130;28;20558;-81
2023/08/30 06:14:52;;;;;;;0.50;0.40;;;14.00;99.90;;;;;;5022253;28;20443;-81
2023/08/30 06:17:21;;;;;;;0.50;0.40;;;14.10;99.90;;;;;;5037011;28;20443;-79
2023/08/30 06:19:48;;;;;;;1.10;1.10;;;14.30;99.90;;;;;;5036503;28;20917;-79
2023/08/30 06:22:15;;;;;;;0.60;0.60;;;14.50;99.90;;;;;;5036753;28;20544;-81
2023/08/30 06:24:42;;;;;;;0.50;0.40;;;14.70;99.90;;;;;;5036502;28;20443;-81
2023/08/30 06:27:09;;;;;;;0.50;0.40;;;15.10;99.90;;;;;;5037054;28;20852;-81
2023/08/30 06:29:36;;;;;;;0.50;0.40;;;15.50;99.90;;;;;;5034569;28;20487;-81
2023/08/30 06:32:03;;;;;;;0.50;0.40;;;15.80;99.90;;;;;;5036125;28;20827;-80
2023/08/30 06:34:31;;;;;;;0.50;0.40;;;16.10;99.90;;;;;;5035248;28;20931;-79
2023/08/30 06:36:58;;;;;;;0.50;0.30;;;16.50;99.90;;;;;;5036057;28;20995;-81
2023/08/30 06:39:25;;;;;;;0.50;0.40;;;17.00;99.90;;;;;;5034893;28;20461;-81
2023/08/30 06:41:52;;;;;;;1.30;1.00;;;17.40;99.90;;;;;;5020105;28;20441;-81
2023/08/30 06:44:19;;;;;;;0.50;0.30;;;17.80;99.90;;;;;;5035847;28;20536;-81
2023/08/30 06:46:46;;;;;;;0.50;0.30;;;18.00;99.90;;;;;;5036172;28;20972;-81
2023/08/30 06:49:13;;;;;;;0.50;0.40;;;18.30;99.90;;;;;;5035072;28;20987;-81
2023/08/30 06:51:41;;;;;;;0.50;0.43;;;18.50;99.90;;;;;;5034347;28;20493;-81
2023/08/30 06:54:08;;;;;;;0.50;0.30;;;19.10;99.90;;;;;;5035207;28;20445;-81
2023/08/30 06:56:34;;;;;;;0.50;0.30;;;19.20;99.90;;;;;;5034544;28;20437;-81
2023/08/30 06:59:02;;;;;;;0.50;0.40;;;19.40;99.90;;;;;;5034836;28;20904;-79
2023/08/30 07:01:28;;;;;;;1.43;1.33;;;19.60;99.90;;;;;;5034744;28;20559;-81
2023/08/30 07:03:55;;;;;;;0.50;0.30;;;19.80;99.90;;;;;;5035842;28;20444;-81
2023/08/30 07:06:22;;;;;;;0.50;0.30;;;20.20;99.90;;;;;;5034805;28;20532;-80
2023/08/30 07:08:50;;;;;;;0.70;0.40;;;20.50;99.90;;;;;;5034479;28;21154;-81
2023/08/30 07:11:17;;;;;;;0.50;0.30;;;20.60;99.90;;;;;;5034579;28;20532;-81
2023/08/30 07:13:44;;;;;;;0.80;0.80;;;20.50;99.90;;;;;;5033993;28;20447;-81
2023/08/30 07:16:10;;;;;;;0.50;0.30;;;20.90;99.90;;;;;;5042843;28;20509;-80
2023/08/30 07:18:39;;;;;;;1.53;1.27;;;20.90;99.90;;;;;;5046321;28;20485;-81
2023/08/30 07:21:06;;;;;;;0.50;0.40;;;21.10;99.90;;;;;;5036691;28;20537;-82
2023/08/30 07:23:33;;;;;;;2.00;1.03;;;21.40;99.90;;;;;;5035237;28;20981;-81
2023/08/30 07:26:01;;;;;;;1.53;0.87;;;21.50;99.90;;;;;;5035767;28;20449;-82
2023/08/30 07:28:28;;;;;;;0.50;0.40;;;21.80;99.90;;;;;;5036053;28;20505;-82
2023/08/30 07:31:03;;;;;;;0.50;0.30;;;21.70;99.90;;;;;;5035315;28;20949;-82
2023/08/30 07:33:30;;;;;;;0.50;0.40;;;21.60;99.90;;;;;;5036524;28;20466;-82
2023/08/30 07:35:56;;;;;;;0.50;0.30;;;21.90;99.90;;;;;;5036677;28;20881;-81
2023/08/30 07:38:23;;;;;;;0.50;0.30;;;21.90;99.90;;;;;;5037996;28;20536;-81
2023/08/30 07:40:50;;;;;;;0.50;0.40;;;22.20;99.90;;;;;;5035921;28;20492;-81
2023/08/30 07:43:18;;;;;;;0.60;0.50;;;22.40;99.90;;;;;;5035977;28;20881;-81
2023/08/30 07:45:46;;;;;;;1.37;1.27;;;22.20;99.90;;;;;;5035475;28;20443;-82
2023/08/30 07:48:13;;;;;;;0.50;0.40;;;22.20;99.90;;;;;;5035585;28;20526;-81
2023/08/30 07:50:40;;;;;;;0.77;0.77;;;22.30;99.90;;;;;;5034830;28;20555;-81
2023/08/30 07:53:07;;;;;;;0.50;0.40;;;22.60;99.90;;;;;;5035456;28;20888;-82
2023/08/30 07:55:33;;;;;;;0.50;0.30;;;22.70;99.90;;;;;;5035072;28;20443;-81
2023/08/30 07:58:00;;;;;;;0.50;0.30;;;23.10;99.90;;;;;;5019824;28;20535;-82
2023/08/30 08:00:28;;;;;;;0.50;0.30;;;23.40;99.90;;;;;;5035194;28;20453;-82
2023/08/30 08:02:55;;;;;;;0.50;0.30;;;23.20;99.90;;;;;;5035120;28;20527;-81
2023/08/30 08:05:22;;;;;;;0.50;0.30;;;22.70;99.90;;;;;;5034722;28;20931;-82
2023/08/30 08:07:52;;;;;;;0.50;0.40;;;23.10;99.90;;;;;;5034840;28;20562;-82
2023/08/30 08:10:19;;;;;;;0.50;0.30;;;23.10;99.90;;;;;;5034354;28;20474;-82
2023/08/30 08:12:46;;;;;;;0.50;0.30;;;23.20;99.90;;;;;;5034615;28;20962;-82
2023/08/30 08:15:13;;;;;;;0.50;0.40;;;23.60;99.90;;;;;;5034129;28;20448;-81
2023/08/30 08:17:41;;;;;;;0.73;0.73;;;22.90;99.90;;;;;;5033512;28;20550;-82
2023/08/30 08:20:08;;;;;;;0.50;0.30;;;22.50;99.90;;;;;;5033638;28;20462;-82
2023/08/30 08:22:35;;;;;;;0.50;0.40;;;22.20;99.90;;;;;;5034427;28;20809;-82
2023/08/30 08:25:02;;;;;;;2.40;1.90;;;22.00;99.90;;;;;;5019977;28;20441;-81
2023/08/30 08:27:30;;;;;;;0.70;0.60;;;22.00;99.90;;;;;;5036717;28;20445;-81
2023/08/30 08:29:57;;;;;;;1.00;1.00;;;21.80;99.90;;;;;;5033897;28;20621;-81
2023/08/30 08:32:23;;;;;;;0.50;0.40;;;21.70;99.90;;;;;;5034418;28;20447;-81
2023/08/30 08:34:52;;;;;;;0.70;0.70;;;20.80;99.90;;;;;;5034449;28;20509;-81
2023/08/30 08:37:18;;;;;;;0.50;0.30;;;20.20;99.90;;;;;;5035128;28;20448;-81
2023/08/30 08:39:46;;;;;;;0.63;0.57;;;19.90;99.90;;;;;;5033848;28;20551;-80
2023/08/30 08:42:13;;;;;;;0.50;0.30;;;19.70;99.90;;;;;;5034395;28;21014;-79
2023/08/30 08:44:41;;;;;;;1.70;0.77;;;19.70;99.90;;;;;;5034817;28;20434;-79
2023/08/30 08:47:08;;;;;;;0.50;0.30;;;19.60;99.90;;;;;;5038036;28;20458;-80
2023/08/30 08:49:35;;;;;;;0.53;0.40;;;19.70;99.90;;;;;;5038531;28;20485;-81
2023/08/30 08:52:03;;;;;;;0.50;0.30;;;20.00;99.90;;;;;;5039787;28;20862;-81
2023/08/30 08:54:30;;;;;;;0.50;0.40;;;20.20;99.90;;;;;;5039437;28;20469;-81
2023/08/30 08:56:58;;;;;;;0.50;0.40;;;20.40;99.90;;;;;;5035159;28;20481;-81
2023/08/30 08:59:26;;;;;;;7.20;5.40;;;20.60;99.90;;;;;;5032909;28;20543;-81
2023/08/30 09:01:54;;;;;;;0.50;0.40;;;20.60;99.90;;;;;;5037533;28;21042;-82
2023/08/30 09:04:21;;;;;;;2.80;1.07;;;20.90;99.90;;;;;;5037992;28;20521;-81
2023/08/30 09:06:48;;;;;;;0.50;0.40;;;20.70;99.90;;;;;;5037561;28;20441;-81
2023/08/30 09:09:16;;;;;;;0.57;0.53;;;20.60;99.90;;;;;;5037656;28;20488;-80
2023/08/30 09:11:43;;;;;;;1.67;0.70;;;20.40;99.90;;;;;;5037645;28;20540;-80
2023/08/30 09:14:10;;;;;;;0.50;0.40;;;20.30;99.90;;;;;;5037054;28;20455;-80
2023/08/30 09:16:37;;;;;;;1.80;1.70;;;20.00;99.90;;;;;;5045682;28;20507;-79
2023/08/30 09:19:05;;;;;;;0.50;0.40;;;19.70;99.90;;;;;;5043086;28;20490;-79
2023/08/30 09:21:32;;;;;;;0.50;0.40;;;19.50;99.90;;;;;;5038088;28;20447;-80
2023/08/30 09:24:00;;;;;;;0.70;0.70;;;19.50;99.90;;;;;;5037957;28;20901;-80
2023/08/30 09:26:31;;;;;;;1.87;1.00;;;19.20;99.90;;;;;;5037407;28;20943;-80
2023/08/30 09:29:03;;;;;;;0.97;0.97;;;18.90;99.90;;;;;;5037430;28;21042;-80
2023/08/30 09:31:34;;;;;;;1.43;0.90;;;18.80;99.90;;;;;;5038179;28;20448;-81
2023/08/30 09:34:01;;;;;;;0.50;0.50;;;18.60;99.90;;;;;;5038496;28;20451;-81
2023/08/30 09:36:33;;;;;;;0.50;0.40;;;18.40;99.90;;;;;;5039445;28;20855;-79
2023/08/30 09:39:03;;;;;;;0.50;0.30;;;18.20;99.90;;;;;;5037538;28;20478;-80
2023/08/30 09:41:32;;;;;;;1.43;1.13;;;18.20;99.90;;;;;;5037508;28;20462;-80
2023/08/30 09:44:00;;;;;;;1.20;1.13;;;18.00;99.90;;;;;;5037564;28;20794;-81
2023/08/30 09:46:27;;;;;;;0.97;0.60;;;17.70;99.90;;;;;;5037778;28;20448;-79
2023/08/30 09:48:54;;;;;;;0.60;0.50;;;17.30;99.90;;;;;;5037706;28;20887;-81
2023/08/30 09:51:23;;;;;;;0.63;0.57;;;17.10;99.90;;;;;;5037463;28;20554;-80
2023/08/30 09:53:55;;;;;;;0.83;0.60;;;17.00;99.90;;;;;;5039827;28;20444;-80
2023/08/30 09:56:23;;;;;;;1.37;1.27;;;16.70;99.90;;;;;;5037253;28;20882;-80
2023/08/30 09:58:52;;;;;;;1.60;1.30;;;16.30;99.90;;;;;;5036789;28;20563;-80
2023/08/30 10:01:20;;;;;;;1.83;1.30;;;16.00;99.90;;;;;;5037258;28;20919;-80
2023/08/30 10:03:47;;;;;;;3.07;0.83;;;15.90;99.90;;;;;;5037741;28;20449;-80
2023/08/30 10:06:15;;;;;;;0.90;0.80;;;15.70;99.90;;;;;;5022621;28;20512;-80
2023/08/30 10:08:43;;;;;;;0.50;0.40;;;15.60;99.90;;;;;;5037491;28;20475;-81
2023/08/30 10:11:13;;;;;;;0.60;0.50;;;15.50;99.90;;;;;;5037419;28;20923;-81
2023/08/30 10:13:43;;;;;;;0.50;0.40;;;15.40;99.90;;;;;;5038374;28;20555;-80
2023/08/30 10:16:19;;;;;;;0.50;0.40;;;15.40;99.90;;;;;;5036995;28;20535;-81
2023/08/30 10:18:50;;;;;;;0.50;0.40;;;15.40;99.90;;;;;;5037007;28;20558;-80
2023/08/30 10:21:19;;;;;;;0.60;0.50;;;15.50;99.90;;;;;;5022051;28;20528;-80
2023/08/30 10:23:47;;;;;;;0.50;0.40;;;15.40;99.90;;;;;;5035813;28;20521;-80
2023/08/30 10:26:15;;;;;;;0.70;0.63;;;15.40;99.90;;;;;;5035211;28;20455;-80
2023/08/30 10:28:43;;;;;;;0.50;0.40;;;15.30;99.90;;;;;;5036421;28;20483;-80
2023/08/30 10:31:14;;;;;;;0.50;0.50;;;15.40;99.90;;;;;;5035870;28;20574;-81
2023/08/30 10:33:50;;;;;;;0.50;0.50;;;15.40;99.90;;;;;;5038207;28;20473;-83
2023/08/30 10:36:22;;;;;;;0.60;0.60;;;15.30;99.90;;;;;;5036597;28;20439;-82
2023/08/30 10:38:51;;;;;;;0.50;0.50;;;15.20;99.90;;;;;;5035993;28;20534;-83
2023/08/30 10:41:22;;;;;;;0.50;0.50;;;15.20;99.90;;;;;;5020901;28;20524;-81
2023/08/30 10:43:52;;;;;;;0.50;0.40;;;15.10;99.90;;;;;;5036836;28;20564;-81
2023/08/30 10:46:31;;;;;;;0.50;0.40;;;15.10;99.90;;;;;;5036136;28;20447;-82
2023/08/30 10:49:09;;;;;;;0.50;0.40;;;15.10;99.90;;;;;;5035347;28;20464;-82
2023/08/30 10:51:39;;;;;;;0.50;0.40;;;15.10;99.90;;;;;;5036723;28;20477;-82
2023/08/30 10:54:13;;;;;;;0.50;0.40;;;15.10;99.90;;;;;;5037644;28;20511;-82
2023/08/30 10:56:48;;;;;;;0.60;0.50;;;15.10;99.90;;;;;;5036405;28;20439;-83
2023/08/30 10:59:18;;;;;;;0.50;0.47;;;15.10;99.90;;;;;;5035004;28;20463;-82
2023/08/30 11:01:47;;;;;;;0.50;0.40;;;15.10;99.90;;;;;;5036232;28;21187;-81
2023/08/30 11:04:16;;;;;;;0.50;0.40;;;15.10;99.90;;;;;;5036192;28;20535;-83
2023/08/30 11:06:45;;;;;;;0.80;0.73;;;15.20;99.90;;;;;;5035909;28;20440;-83
2023/08/30 11:09:14;;;;;;;0.50;0.43;;;15.20;99.90;;;;;;5037245;28;20485;-83
2023/08/30 11:11:41;;;;;;;0.60;0.57;;;15.20;99.90;;;;;;5035535;28;20890;-83
2023/08/30 11:14:08;;;;;;;0.77;0.77;;;15.10;99.90;;;;;;5035105;28;20536;-83
2023/08/30 11:16:35;;;;;;;1.17;1.07;;;15.00;99.90;;;;;;5035328;28;20450;-82
2023/08/30 11:19:04;;;;;;;0.50;0.40;;;15.00;99.90;;;;;;5035166;28;20474;-84
2023/08/30 11:21:32;;;;;;;0.50;0.30;;;15.00;99.90;;;;;;5040782;28;20452;-83
2023/08/30 11:23:59;;;;;;;0.50;0.40;;;15.10;99.90;;;;;;5044177;28;20487;-84
2023/08/30 11:26:26;;;;;;;1.00;1.00;;;15.00;99.90;;;;;;5038393;28;20483;-83
2023/08/30 11:28:53;;;;;;;0.50;0.40;;;14.90;99.90;;;;;;5036979;28;21025;-83
2023/08/30 11:31:22;;;;;;;0.60;0.50;;;14.80;99.90;;;;;;5037545;28;20566;-84
2023/08/30 11:33:52;;;;;;;0.50;0.40;;;14.80;99.90;;;;;;5037500;28;20456;-83
2023/08/30 11:36:22;;;;;;;1.07;1.07;;;14.80;99.90;;;;;;5038825;28;20439;-82
2023/08/30 11:38:49;;;;;;;0.63;0.63;;;14.90;99.90;;;;;;5037098;28;20465;-83
2023/08/30 11:41:16;;;;;;;0.80;0.80;;;14.80;99.90;;;;;;5037712;28;20442;-83
2023/08/30 11:43:43;;;;;;;1.00;0.57;;;14.80;99.90;;;;;;5037205;28;20452;-83
2023/08/30 11:46:12;;;;;;;0.63;0.63;;;14.70;99.90;;;;;;5036747;28;20447;-84
2023/08/30 11:48:39;;;;;;;0.50;0.40;;;14.80;99.90;;;;;;5036193;28;20529;-84
2023/08/30 11:51:06;;;;;;;1.63;1.57;;;14.90;99.90;;;;;;5036946;28;20564;-83
2023/08/30 11:53:35;;;;;;;0.50;0.40;;;15.00;99.90;;;;;;5038671;28;20541;-84
2023/08/30 11:56:02;;;;;;;1.07;0.90;;;15.00;99.90;;;;;;5036918;28;20531;-83
2023/08/30 11:58:33;;;;;;;1.93;0.77;;;15.00;99.90;;;;;;5037482;28;20464;-83
2023/08/30 12:01:00;;;;;;;0.50;0.50;;;15.00;99.90;;;;;;5038671;28;20740;-83
2023/08/30 12:03:28;;;;;;;1.00;1.00;;;15.00;99.90;;;;;;5036898;28;20477;-84
2023/08/30 12:05:55;;;;;;;0.60;0.40;;;15.00;99.90;;;;;;5037335;28;20869;-85
2023/08/30 12:08:25;;;;;;;3.60;2.47;;;15.00;99.90;;;;;;5036857;28;20436;-84
2023/08/30 12:10:54;;;;;;;2.63;1.03;;;15.20;99.90;;;;;;5036836;28;21021;-85
2023/08/30 12:13:22;;;;;;;0.50;0.40;;;15.20;99.90;;;;;;5036363;28;20536;-84
2023/08/30 12:15:49;;;;;;;4.70;4.33;;;15.30;99.90;;;;;;5035293;28;20543;-83
2023/08/30 12:18:16;;;;;;;0.50;0.30;;;15.40;99.90;;;;;;5034941;28;20445;-85
2023/08/30 12:20:53;;;;;;;0.50;0.40;;;15.40;99.90;;;;;;5035109;28;20447;-83
2023/08/30 12:23:27;;;;;;;0.80;0.80;;;15.60;99.90;;;;;;5034354;28;20453;-83
2023/08/30 12:26:04;;;;;;;1.30;1.20;;;15.50;99.90;;;;;;5034329;28;20450;-83
2023/08/30 12:28:32;;;;;;;0.50;0.30;;;15.50;99.90;;;;;;5019717;28;20460;-83
2023/08/30 12:31:00;;;;;;;0.50;0.40;;;15.50;99.90;;;;;;5035586;28;21031;-84
2023/08/30 12:33:27;;;;;;;0.50;0.30;;;15.40;99.90;;;;;;5019110;28;20448;-83
2023/08/30 12:35:54;;;;;;;0.50;0.40;;;15.50;99.90;;;;;;5034920;28;20851;-84
2023/08/30 12:38:21;;;;;;;0.50;0.40;;;15.50;99.90;;;;;;5035286;28;20497;-84
2023/08/30 12:40:50;;;;;;;1.33;1.23;;;15.50;99.90;;;;;;5036721;28;20899;-84
2023/08/30 12:43:19;;;;;;;0.50;0.50;;;15.60;99.90;;;;;;5035101;28;20955;-81
2023/08/30 12:45:47;;;;;;;0.50;0.30;;;15.60;99.90;;;;;;5035586;28;20462;-83
2023/08/30 12:48:16;;;;;;;0.50;0.40;;;15.60;99.90;;;;;;5035395;28;20441;-82
2023/08/30 12:50:44;;;;;;;0.50;0.40;;;15.60;99.90;;;;;;5034688;28;20476;-83